West Yellowstone, Montana
Current Conditions -  °F | °C
As of 5:55 PM on Wednesday 22 Oct 2014 (Local Time) from KWYS Reporting Station
Clear Clear  
Wind Chill:   Ceiling: Unl
Heat Index:   Visibility: 10mi
Dew Point: -2°   Wind: 6mph
Humidity: 61%   Direction: 220°SW
Pressure: 30.18"   Gusts: NA
Location:  44.66°N, 111.1°W
Report Text: KWYS 222355Z AUTO 22005KT 10SM CLR 05/M02 A3018 RMK AO2
Loading
Personal Weather Stations






























Interactive Weather Map New forecast layout! Learn more

10-Day Weather Forecast

Advertisements
Track Severe Weather on mobile